Time;durP1;ratioP1;P1;durP2;ratioP2;P2;SDS_P1;SDS_P2;PMS_P1;PMS_P2;Temp;Humidity;BMP_temperature;BMP_pressure;BME280_temperature;BME280_humidity;BME280_pressure;Samples;Min_cycle;Max_cycle;Signal;HPM_P1;HPM_P2
2023/07/03 00:01:08;;;;;;;8.88;2.80;;;;;;;16.96;44.49;99444.03;10391670;28;20045;-61
2023/07/03 00:06:10;;;;;;;7.22;2.67;;;;;;;16.97;44.64;99450.16;10389994;28;20132;-61
2023/07/03 00:11:12;;;;;;;5.40;2.50;;;;;;;16.95;44.80;99439.75;10392475;28;20334;-61
2023/07/03 00:16:14;;;;;;;6.15;2.70;;;;;;;16.91;44.63;99440.19;10388485;28;20063;-61
2023/07/03 00:21:16;;;;;;;7.32;3.38;;;;;;;16.86;44.98;99443.25;10392209;28;20140;-61
2023/07/03 00:26:19;;;;;;;6.63;2.85;;;;;;;16.91;45.06;99441.03;10360539;28;20041;-60
2023/07/03 00:31:21;;;;;;;7.20;3.10;;;;;;;16.86;45.31;99447.69;10405635;28;20057;-60
2023/07/03 00:36:23;;;;;;;7.72;2.88;;;;;;;16.87;44.95;99444.09;10388444;28;20061;-61
2023/07/03 00:41:25;;;;;;;8.13;3.22;;;;;;;16.95;45.06;99446.84;10374659;28;20052;-61
2023/07/03 00:46:27;;;;;;;7.28;2.80;;;;;;;16.96;45.25;99438.75;10388444;28;20463;-60
2023/07/03 00:51:30;;;;;;;7.18;2.60;;;;;;;16.92;45.32;99442.66;10386887;28;20107;-61
2023/07/03 00:56:31;;;;;;;8.30;2.95;;;;;;;16.98;45.07;99447.38;10388427;28;20076;-60
2023/07/03 01:01:58;;;;;;;8.40;2.97;;;;;;;16.98;45.76;99451.81;10389099;28;20128;-61
2023/07/03 01:07:06;;;;;;;7.32;2.70;;;;;;;17.03;45.41;99460.16;10387434;28;20053;-61
2023/07/03 01:12:10;;;;;;;8.63;3.17;;;;;;;16.97;45.26;99466.88;10401156;28;20045;-61
2023/07/03 01:17:14;;;;;;;9.02;3.42;;;;;;;16.94;45.73;99461.00;10386631;28;20157;-61
2023/07/03 01:22:24;;;;;;;5.60;2.47;;;;;;;16.88;45.99;99461.59;10386737;28;20041;-61
2023/07/03 01:27:31;;;;;;;6.93;2.95;;;;;;;16.82;45.98;99462.16;10386645;28;20041;-61
2023/07/03 01:32:35;;;;;;;7.50;2.70;;;;;;;16.73;46.26;99473.59;10385884;28;20412;-61
2023/07/03 01:37:42;;;;;;;9.43;2.72;;;;;;;16.75;46.31;99474.28;10385792;28;20140;-61
2023/07/03 01:42:46;;;;;;;5.75;2.53;;;;;;;16.61;46.23;99458.88;10367829;28;20508;-60
2023/07/03 01:47:48;;;;;;;9.75;3.80;;;;;;;16.73;46.36;99460.38;10387400;28;20183;-61
2023/07/03 01:52:57;;;;;;;7.43;2.80;;;;;;;16.74;46.79;99459.38;10385554;28;20057;-61
2023/07/03 01:58:09;;;;;;;8.55;2.60;;;;;;;16.77;47.08;99454.66;10389230;28;20085;-60
2023/07/03 02:03:43;;;;;;;7.15;2.60;;;;;;;16.64;47.36;99463.84;10407344;28;20061;-60
2023/07/03 02:08:47;;;;;;;8.35;3.10;;;;;;;16.47;46.98;99465.41;10393164;28;20150;-60
2023/07/03 02:13:49;;;;;;;6.25;2.30;;;;;;;16.39;47.11;99467.03;10376446;28;20060;-60
2023/07/03 02:18:52;;;;;;;4.57;2.22;;;;;;;16.31;46.79;99461.63;10393918;28;20695;-61
2023/07/03 02:23:54;;;;;;;6.60;2.50;;;;;;;16.22;46.95;99472.03;10394212;28;20513;-61
2023/07/03 02:28:56;;;;;;;7.07;2.35;;;;;;;16.07;47.06;99465.50;10392560;28;20045;-61
2023/07/03 02:33:58;;;;;;;5.80;2.13;;;;;;;16.04;47.16;99460.50;10389727;28;20132;-60
2023/07/03 02:39:01;;;;;;;5.45;1.98;;;;;;;16.10;47.24;99464.41;10389358;28;20132;-61
2023/07/03 02:44:03;;;;;;;9.27;2.05;;;;;;;16.01;47.20;99466.06;10391094;28;20037;-60
2023/07/03 02:49:08;;;;;;;7.28;1.95;;;;;;;15.92;47.02;99472.16;10383469;28;20140;-60
2023/07/03 02:54:10;;;;;;;7.95;2.08;;;;;;;15.85;47.23;99473.69;10388547;28;20174;-60
2023/07/03 02:59:14;;;;;;;7.07;2.10;;;;;;;15.81;47.15;99474.06;10390060;28;20191;-60
2023/07/03 03:04:17;;;;;;;5.43;1.67;;;;;;;15.73;47.28;99466.00;10387313;28;20053;-60
2023/07/03 03:09:19;;;;;;;6.53;2.05;;;;;;;15.77;46.92;99460.34;10382925;28;20060;-60
2023/07/03 03:14:22;;;;;;;5.85;1.70;;;;;;;15.63;46.66;99468.63;10376308;28;20135;-60
2023/07/03 03:19:24;;;;;;;4.80;1.55;;;;;;;15.69;46.86;99473.34;10398883;28;20049;-60
2023/07/03 03:24:26;;;;;;;4.88;2.33;;;;;;;15.66;46.39;99470.97;10379558;28;21014;-60
2023/07/03 03:29:28;;;;;;;3.63;1.48;;;;;;;15.72;46.20;99464.31;10382347;28;20064;-60
2023/07/03 03:34:34;;;;;;;5.65;1.65;;;;;;;15.60;46.38;99465.41;10382310;28;20060;-61
2023/07/03 03:39:37;;;;;;;6.65;1.63;;;;;;;15.65;46.09;99479.88;10380747;28;20042;-61
2023/07/03 03:44:41;;;;;;;5.18;1.80;;;;;;;15.61;46.02;99472.34;10381857;28;20050;-60
2023/07/03 03:49:43;;;;;;;4.70;1.70;;;;;;;15.49;46.13;99474.25;10397434;28;20045;-60
2023/07/03 03:54:46;;;;;;;5.82;1.50;;;;;;;15.56;46.01;99474.56;10384180;28;20077;-60
2023/07/03 03:59:48;;;;;;;4.32;1.30;;;;;;;15.57;45.82;99469.13;10380393;28;20033;-60
2023/07/03 04:04:50;;;;;;;7.63;1.60;;;;;;;15.69;45.75;99465.44;10366487;28;20081;-60
2023/07/03 04:09:52;;;;;;;3.53;1.50;;;;;;;15.80;45.49;99467.97;10383341;28;20144;-60
2023/07/03 04:14:54;;;;;;;8.32;1.50;;;;;;;15.81;45.48;99468.81;10381468;28;20091;-60
2023/07/03 04:19:56;;;;;;;5.00;1.70;;;;;;;15.81;45.40;99471.44;10364926;28;20443;-60
2023/07/03 04:24:58;;;;;;;6.45;1.60;;;;;;;15.91;45.17;99475.75;10381914;28;20071;-61
2023/07/03 04:30:02;;;;;;;4.93;1.40;;;;;;;16.06;45.21;99486.75;10383214;28;20957;-60
2023/07/03 04:35:06;;;;;;;4.45;1.63;;;;;;;15.98;45.38;99484.78;10387915;28;20107;-60
2023/07/03 04:40:09;;;;;;;3.33;1.42;;;;;;;16.12;45.15;99487.03;10388827;28;20116;-60
2023/07/03 04:45:13;;;;;;;5.00;1.50;;;;;;;16.37;44.66;99492.72;10380414;28;20049;-61
2023/07/03 04:50:17;;;;;;;6.68;2.00;;;;;;;16.47;44.34;99478.59;10386753;28;20073;-60
2023/07/03 04:55:19;;;;;;;3.17;1.35;;;;;;;16.66;44.42;99488.31;10387210;28;20061;-60
2023/07/03 05:00:21;;;;;;;6.82;1.55;;;;;;;16.62;44.30;99489.56;10388388;28;20045;-60
2023/07/03 05:05:24;;;;;;;6.13;1.58;;;;;;;16.49;44.51;99496.94;10387031;28;20081;-60
2023/07/03 05:10:26;;;;;;;3.70;1.80;;;;;;;16.57;44.50;99492.63;10384797;28;20057;-60
2023/07/03 05:15:30;;;;;;;3.67;1.40;;;;;;;16.67;44.21;99498.72;10387082;28;20148;-61
2023/07/03 05:20:33;;;;;;;6.70;1.58;;;;;;;16.61;44.23;99503.75;10387229;28;20041;-61
2023/07/03 05:25:35;;;;;;;5.45;1.52;;;;;;;16.75;44.00;99508.59;10389230;28;20045;-60
2023/07/03 05:30:37;;;;;;;3.55;1.20;;;;;;;16.94;43.71;99513.84;10386828;28;20134;-60
2023/07/03 05:35:39;;;;;;;7.20;1.55;;;;;;;17.29;43.21;99516.69;10398792;28;20535;-60
2023/07/03 05:40:51;;;;;;;4.82;1.50;;;;;;;18.73;41.34;99510.59;10385002;28;20073;-61
2023/07/03 05:45:53;;;;;;;4.57;1.67;;;;;;;19.04;40.74;99519.78;10384932;28;20057;-61
2023/07/03 05:50:57;;;;;;;2.20;1.58;;;;;;;19.59;39.94;99512.28;10384080;28;20045;-60
2023/07/03 05:55:59;;;;;;;5.25;1.67;;;;;;;19.70;39.49;99520.81;10388430;28;20049;-60
2023/07/03 06:01:03;;;;;;;4.07;1.38;;;;;;;19.74;39.63;99516.03;10385281;28;20049;-61
2023/07/03 06:06:06;;;;;;;5.80;1.52;;;;;;;20.04;39.27;99515.50;10386514;28;20056;-61
2023/07/03 06:11:08;;;;;;;5.22;1.30;;;;;;;20.04;38.98;99526.09;10386122;28;20057;-60
2023/07/03 06:16:10;;;;;;;2.63;1.20;;;;;;;20.32;38.61;99516.88;10382824;28;20484;-61
2023/07/03 06:21:14;;;;;;;6.57;1.83;;;;;;;20.74;38.19;99522.13;10367310;28;20037;-60
2023/07/03 06:26:16;;;;;;;3.60;1.33;;;;;;;20.86;37.60;99516.31;10377230;28;20034;-61
2023/07/03 06:31:18;;;;;;;2.83;1.42;;;;;;;20.76;37.87;99533.41;10381291;28;20055;-61
2023/07/03 06:36:21;;;;;;;6.07;1.50;;;;;;;20.68;37.45;99520.13;10383351;28;20046;-61
2023/07/03 06:41:26;;;;;;;5.75;1.20;;;;;;;20.38;37.22;99531.34;10383187;28;20136;-62
2023/07/03 06:46:29;;;;;;;4.95;1.48;;;;;;;20.43;38.00;99535.16;10378237;28;20410;-62
2023/07/03 06:51:31;;;;;;;3.92;1.52;;;;;;;20.39;38.43;99535.66;10381706;28;20072;-62
2023/07/03 06:56:33;;;;;;;3.95;1.38;;;;;;;20.07;38.53;99547.84;10397264;28;20048;-62
2023/07/03 07:01:36;;;;;;;4.88;1.67;;;;;;;20.50;38.00;99544.13;10384005;28;20045;-61
2023/07/03 07:06:39;;;;;;;4.43;1.40;;;;;;;20.02;38.53;99552.81;10376958;28;20061;-61
2023/07/03 07:11:41;;;;;;;4.20;1.50;;;;;;;19.71;39.21;99566.75;10382452;28;20451;-62
2023/07/03 07:16:43;;;;;;;3.25;1.25;;;;;;;19.55;39.48;99564.00;10383667;28;20057;-62
2023/07/03 07:21:46;;;;;;;6.18;1.40;;;;;;;19.26;39.60;99559.03;10382884;28;20045;-62
2023/07/03 07:26:50;;;;;;;4.72;1.65;;;;;;;18.99;40.04;99561.78;10384153;28;20043;-62
2023/07/03 07:31:54;;;;;;;3.90;1.65;;;;;;;19.34;39.46;99545.81;10381814;28;20061;-62
2023/07/03 07:36:56;;;;;;;4.85;1.50;;;;;;;19.84;39.40;99533.53;10380386;28;20453;-61
2023/07/03 07:41:58;;;;;;;5.07;1.33;;;;;;;21.34;37.71;99534.03;10382823;28;20053;-61
2023/07/03 07:47:00;;;;;;;5.32;1.40;;;;;;;21.49;37.49;99540.31;10383760;28;20076;-61
2023/07/03 07:52:03;;;;;;;2.88;1.25;;;;;;;21.57;36.99;99542.97;10382249;28;20049;-61
2023/07/03 07:57:08;;;;;;;4.70;1.77;;;;;;;21.17;37.25;99550.97;10382528;28;20052;-61
2023/07/03 08:02:10;;;;;;;3.08;1.55;;;;;;;20.88;37.41;99546.22;10379076;28;20128;-61
2023/07/03 08:07:12;;;;;;;4.72;1.58;;;;;;;21.45;36.61;99544.34;10351071;28;20052;-62
2023/07/03 08:12:14;;;;;;;5.45;1.75;;;;;;;21.53;36.37;99535.50;10373954;28;20081;-61
2023/07/03 08:17:16;;;;;;;4.10;1.30;;;;;;;21.81;36.16;99540.22;10381749;28;20416;-61
2023/07/03 08:22:18;;;;;;;2.45;1.23;;;;;;;23.38;34.59;99543.13;10387358;28;20045;-61
2023/07/03 08:27:20;;;;;;;3.75;1.35;;;;;;;24.33;31.73;99537.88;10385841;28;20045;-61
2023/07/03 08:32:23;;;;;;;5.22;1.60;;;;;;;24.27;32.43;99534.91;10387479;28;20049;-62
2023/07/03 08:37:25;;;;;;;3.95;1.30;;;;;;;24.32;32.17;99530.84;10382055;28;20501;-62
2023/07/03 08:42:34;;;;;;;6.53;1.52;;;;;;;25.02;29.84;99521.88;10369079;28;20042;-61
2023/07/03 08:47:39;;;;;;;4.05;1.27;;;;;;;25.35;30.72;99514.13;10383875;28;20069;-62
2023/07/03 08:52:47;;;;;;;3.55;1.20;;;;;;;26.23;29.07;99514.16;10385742;28;20052;-62
2023/07/03 08:57:50;;;;;;;4.60;1.30;;;;;;;25.77;29.05;99523.84;10380404;28;20160;-61
2023/07/03 09:03:01;;;;;;;6.35;1.60;;;;;;;25.75;28.26;99515.97;10382829;28;20160;-61
2023/07/03 09:08:07;;;;;;;3.72;1.25;;;;;;;24.65;30.39;99510.63;10380115;28;20053;-61
2023/07/03 09:13:18;;;;;;;4.32;1.30;;;;;;;24.33;29.94;99517.28;10382443;28;20135;-61
2023/07/03 09:18:26;;;;;;;6.07;1.67;;;;;;;24.41;30.79;99519.84;10379659;28;20046;-61
2023/07/03 09:23:36;;;;;;;3.93;1.50;;;;;;;23.93;31.22;99510.66;10382798;28;20045;-61
2023/07/03 09:28:40;;;;;;;4.68;1.52;;;;;;;24.07;31.34;99520.50;10380478;28;20046;-60
2023/07/03 09:33:42;;;;;;;4.90;1.75;;;;;;;23.06;31.96;99532.78;10384935;28;20049;-62
2023/07/03 09:38:44;;;;;;;3.30;1.33;;;;;;;23.03;32.56;99532.31;10382802;28;20096;-61
2023/07/03 09:43:46;;;;;;;4.95;1.60;;;;;;;22.90;32.01;99542.78;10382331;28;20042;-61
2023/07/03 09:48:50;;;;;;;2.95;1.40;;;;;;;22.58;32.82;99538.47;10381465;28;20826;-61
2023/07/03 09:53:56;;;;;;;3.63;1.45;;;;;;;22.88;32.27;99542.94;10383225;28;20642;-60
2023/07/03 09:59:01;;;;;;;5.03;1.60;;;;;;;22.77;32.04;99550.53;10382716;28;20156;-60
2023/07/03 10:04:08;;;;;;;3.50;1.55;;;;;;;22.79;32.02;99560.00;10384619;28;20156;-61
2023/07/03 10:09:25;;;;;;;4.68;1.40;;;;;;;22.90;31.04;99559.59;10380070;28;20038;-61
2023/07/03 10:14:52;;;;;;;2.45;1.20;;;;;;;22.77;31.12;99551.38;10382210;28;20050;-61
2023/07/03 10:20:00;;;;;;;2.03;1.20;;;;;;;23.37;31.12;99551.34;10382947;28;20111;-61
2023/07/03 10:25:06;;;;;;;4.78;1.52;;;;;;;23.56;30.52;99545.47;10377842;28;20085;-61
2023/07/03 10:30:15;;;;;;;3.30;1.33;;;;;;;23.69;30.32;99547.50;10368081;28;20049;-60
2023/07/03 10:35:27;;;;;;;3.42;1.33;;;;;;;23.71;30.41;99559.66;10376949;28;20413;-61
2023/07/03 10:40:38;;;;;;;4.13;1.48;;;;;;;23.76;29.57;99551.91;10380876;28;20623;-60
2023/07/03 10:45:41;;;;;;;5.25;1.75;;;;;;;23.59;29.57;99541.63;10379417;28;20095;-61
2023/07/03 10:50:54;;;;;;;2.42;1.20;;;;;;;23.78;28.88;99543.75;10375058;28;20133;-60
2023/07/03 10:56:23;;;;;;;2.35;1.20;;;;;;;23.88;28.76;99545.09;10375915;28;20049;-60
2023/07/03 11:01:48;;;;;;;2.78;1.23;;;;;;;24.56;28.99;99539.34;10379962;28;20103;-61
2023/07/03 11:07:03;;;;;;;5.47;1.40;;;;;;;24.29;28.99;99526.69;10378290;28;20072;-60
2023/07/03 11:12:11;;;;;;;3.88;1.70;;;;;;;23.98;29.23;99528.78;10379498;28;20049;-60
2023/07/03 11:17:41;;;;;;;2.97;1.40;;;;;;;24.12;28.92;99531.44;10376150;28;20050;-60
2023/07/03 11:23:22;;;;;;;3.63;1.48;;;;;;;23.92;29.39;99524.19;10380421;28;20038;-60
2023/07/03 11:28:33;;;;;;;5.00;1.60;;;;;;;23.91;30.14;99522.53;10378729;28;20056;-60
2023/07/03 11:33:37;;;;;;;2.95;1.40;;;;;;;23.73;30.36;99530.94;10378810;28;20042;-60
2023/07/03 11:39:10;;;;;;;5.28;2.05;;;;;;;23.70;30.01;99535.78;10378817;28;20386;-60
2023/07/03 11:44:33;;;;;;;3.30;1.17;;;;;;;23.70;30.39;99520.59;10390006;28;20444;-59
2023/07/03 11:49:38;;;;;;;3.00;1.20;;;;;;;24.27;30.08;99518.88;10383906;28;20045;-60
2023/07/03 11:54:42;;;;;;;3.22;1.48;;;;;;;24.64;29.53;99509.78;10384530;28;20057;-60
2023/07/03 11:59:44;;;;;;;5.63;1.60;;;;;;;24.26;30.07;99519.91;10384688;28;20244;-60
2023/07/03 12:04:46;;;;;;;2.45;1.40;;;;;;;24.63;29.62;99515.34;10385179;28;20056;-60
2023/07/03 12:09:51;;;;;;;4.53;1.30;;;;;;;24.98;29.25;99509.91;10387514;28;20064;-60
2023/07/03 12:14:58;;;;;;;4.13;1.58;;;;;;;25.06;28.64;99506.28;10381896;28;20058;-60
2023/07/03 12:20:10;;;;;;;3.20;1.40;;;;;;;24.67;28.91;99514.78;10383487;28;20045;-60
2023/07/03 12:25:20;;;;;;;3.60;1.60;;;;;;;25.06;29.04;99515.13;10385683;28;20041;-60
2023/07/03 12:30:29;;;;;;;2.88;1.33;;;;;;;24.97;28.69;99510.09;10384550;28;20136;-60
2023/07/03 12:35:34;;;;;;;2.40;1.20;;;;;;;24.74;29.85;99504.13;10375845;28;20053;-60
2023/07/03 12:40:44;;;;;;;3.08;1.42;;;;;;;24.90;29.22;99518.06;10385860;28;20057;-61
2023/07/03 12:45:51;;;;;;;7.15;1.40;;;;;;;25.06;29.16;99516.97;10378801;28;20068;-60
2023/07/03 12:50:57;;;;;;;3.70;1.33;;;;;;;25.01;28.60;99503.34;10383940;28;20041;-60
2023/07/03 12:56:08;;;;;;;4.30;1.70;;;;;;;24.74;29.07;99499.63;10382052;28;20216;-60
2023/07/03 13:01:11;;;;;;;3.67;1.30;;;;;;;24.67;29.55;99509.41;10384876;28;20132;-60
2023/07/03 13:06:27;;;;;;;2.78;1.20;;;;;;;24.15;28.87;99511.53;10382251;28;20331;-61
2023/07/03 13:11:40;;;;;;;3.70;1.73;;;;;;;24.26;28.47;99509.22;10378596;28;20396;-60
2023/07/03 13:16:45;;;;;;;4.07;1.40;;;;;;;24.67;29.16;99516.63;10376824;28;20052;-60
2023/07/03 13:21:50;;;;;;;3.22;1.60;;;;;;;24.67;27.83;99511.25;10381567;28;20080;-60
2023/07/03 13:26:54;;;;;;;3.55;1.42;;;;;;;24.69;26.95;99509.22;10381323;28;20966;-60
2023/07/03 13:32:16;;;;;;;3.13;1.52;;;;;;;24.23;25.94;99506.06;10384606;28;20045;-60
2023/07/03 13:37:23;;;;;;;3.47;1.30;;;;;;;24.25;27.72;99501.38;10381552;28;20045;-60
2023/07/03 13:42:26;;;;;;;2.95;1.25;;;;;;;24.40;26.93;99498.66;10382693;28;20037;-60
2023/07/03 13:47:29;;;;;;;3.42;1.55;;;;;;;24.83;27.09;99503.00;10380972;28;20045;-61
2023/07/03 13:52:31;;;;;;;3.53;1.58;;;;;;;24.44;26.95;99502.59;10384935;28;20538;-61
2023/07/03 13:57:33;;;;;;;2.35;1.50;;;;;;;24.68;26.85;99494.19;10380198;28;20042;-61
2023/07/03 14:02:36;;;;;;;3.55;1.70;;;;;;;24.91;26.48;99497.50;10383570;28;20042;-62
2023/07/03 14:07:49;;;;;;;3.58;1.80;;;;;;;25.00;26.17;99496.31;10379245;28;20048;-62
2023/07/03 14:12:52;;;;;;;4.53;1.50;;;;;;;24.96;26.34;99481.69;10382959;28;20437;-61
2023/07/03 14:17:54;;;;;;;3.78;1.52;;;;;;;25.04;26.75;99484.22;10380640;28;20056;-62
2023/07/03 14:22:57;;;;;;;2.67;1.67;;;;;;;25.13;26.65;99479.53;10379547;28;20045;-61
2023/07/03 14:28:00;;;;;;;6.43;1.70;;;;;;;24.95;26.48;99482.72;10379902;28;20060;-61
2023/07/03 14:33:02;;;;;;;4.07;2.10;;;;;;;24.96;26.75;99476.34;10380125;28;20116;-62
2023/07/03 14:38:05;;;;;;;4.88;1.90;;;;;;;24.87;26.66;99474.84;10379460;28;20045;-62
2023/07/03 14:43:09;;;;;;;5.03;2.13;;;;;;;25.43;26.27;99459.56;10379921;28;20056;-62
2023/07/03 14:48:11;;;;;;;4.10;1.48;;;;;;;25.79;26.27;99462.84;10378291;28;20091;-62
2023/07/03 14:53:14;;;;;;;4.47;1.80;;;;;;;26.04;26.40;99455.13;10381082;28;20045;-62
2023/07/03 14:58:16;;;;;;;3.65;1.90;;;;;;;26.18;26.07;99441.53;10376917;28;20065;-62
2023/07/03 15:03:18;;;;;;;3.17;1.70;;;;;;;26.21;26.07;99451.03;10364126;28;20403;-61
2023/07/03 15:08:21;;;;;;;3.97;1.65;;;;;;;25.84;26.50;99444.31;10349606;28;20057;-61
2023/07/03 15:13:23;;;;;;;3.85;1.73;;;;;;;25.64;26.30;99430.03;10378971;28;20060;-61
2023/07/03 15:18:25;;;;;;;5.10;1.70;;;;;;;25.85;26.50;99446.78;10378854;28;20049;-61
2023/07/03 15:23:28;;;;;;;2.95;1.60;;;;;;;25.56;26.38;99433.72;10378042;28;20096;-61
2023/07/03 15:28:30;;;;;;;3.40;1.60;;;;;;;25.31;26.86;99437.88;10376233;28;20124;-61
2023/07/03 15:33:33;;;;;;;6.85;2.20;;;;;;;25.54;26.66;99442.97;10380114;28;20042;-61
2023/07/03 15:38:35;;;;;;;3.65;1.83;;;;;;;25.21;26.85;99437.41;10376570;28;20038;-61
2023/07/03 15:43:37;;;;;;;3.67;1.98;;;;;;;25.01;26.99;99433.78;10378572;28;20044;-62
2023/07/03 15:48:40;;;;;;;5.18;2.13;;;;;;;24.79;27.15;99430.34;10374280;28;20049;-61
2023/07/03 15:53:42;;;;;;;4.47;1.80;;;;;;;24.84;27.06;99429.75;10377031;28;20080;-61
2023/07/03 15:58:46;;;;;;;3.83;1.55;;;;;;;24.41;27.62;99431.63;10375890;28;20049;-61
2023/07/03 16:03:54;;;;;;;4.63;1.83;;;;;;;24.41;27.39;99431.63;10381506;28;20081;-61
2023/07/03 16:08:58;;;;;;;4.97;1.75;;;;;;;24.47;27.72;99430.06;10376924;28;20456;-61
2023/07/03 16:14:02;;;;;;;4.05;1.80;;;;;;;24.61;27.31;99431.81;10379319;28;20555;-61
2023/07/03 16:19:04;;;;;;;2.78;1.40;;;;;;;24.32;28.17;99438.13;10380011;28;20061;-61
2023/07/03 16:24:07;;;;;;;4.68;1.90;;;;;;;24.29;28.36;99435.84;10376684;28;20156;-60
2023/07/03 16:29:09;;;;;;;6.55;2.10;;;;;;;24.16;28.98;99417.00;10379630;28;20060;-60
2023/07/03 16:34:11;;;;;;;4.45;2.13;;;;;;;24.18;29.17;99415.78;10385364;28;20081;-60
2023/07/03 16:39:13;;;;;;;5.28;1.52;;;;;;;24.07;29.01;99415.47;10384714;28;20073;-59
2023/07/03 16:44:15;;;;;;;4.43;1.90;;;;;;;24.03;29.53;99417.66;10382528;28;20041;-60
2023/07/03 16:49:17;;;;;;;3.15;1.80;;;;;;;24.18;29.03;99406.97;10383299;28;20042;-60
2023/07/03 16:54:20;;;;;;;4.95;1.95;;;;;;;24.04;29.50;99410.50;10385610;28;20053;-59
2023/07/03 16:59:22;;;;;;;6.80;2.20;;;;;;;24.06;29.41;99408.47;10382435;28;20045;-60
2023/07/03 17:04:25;;;;;;;5.38;2.20;;;;;;;24.08;29.74;99401.91;10384958;28;20136;-60
2023/07/03 17:09:27;;;;;;;4.35;2.33;;;;;;;23.97;29.85;99404.25;10383172;28;20596;-61
2023/07/03 17:14:29;;;;;;;5.00;2.20;;;;;;;23.96;30.00;99394.59;10383437;28;20416;-61
2023/07/03 17:19:32;;;;;;;6.13;2.65;;;;;;;24.08;30.12;99399.25;10381954;28;20064;-61
2023/07/03 17:24:34;;;;;;;4.68;2.17;;;;;;;23.87;30.40;99396.56;10363789;28;20049;-60
2023/07/03 17:29:37;;;;;;;4.78;2.05;;;;;;;23.73;30.54;99401.94;10381852;28;20052;-61
2023/07/03 17:34:39;;;;;;;4.97;2.38;;;;;;;23.72;30.95;99398.44;10380925;28;20072;-61
2023/07/03 17:39:41;;;;;;;6.25;2.50;;;;;;;23.79;30.96;99396.66;10361700;28;20063;-62
2023/07/03 17:44:43;;;;;;;4.60;1.85;;;;;;;23.62;30.95;99386.38;10381750;28;20050;-60
2023/07/03 17:49:45;;;;;;;7.03;2.78;;;;;;;23.44;31.17;99386.81;10382022;28;20107;-60
2023/07/03 17:54:48;;;;;;;3.50;1.80;;;;;;;23.47;31.46;99386.44;10381124;28;20132;-60
2023/07/03 17:59:50;;;;;;;3.75;1.90;;;;;;;23.31;31.75;99382.09;10384913;28;20597;-61
2023/07/03 18:04:52;;;;;;;5.20;2.00;;;;;;;23.34;32.04;99386.22;10381272;28;20497;-60
2023/07/03 18:09:54;;;;;;;3.80;1.80;;;;;;;23.28;32.33;99390.47;10382760;28;20209;-60
2023/07/03 18:14:56;;;;;;;4.93;2.00;;;;;;;23.03;32.52;99390.94;10382329;28;20053;-60
2023/07/03 18:19:58;;;;;;;4.07;2.00;;;;;;;22.84;32.68;99389.63;10377639;28;21167;-60
2023/07/03 18:25:00;;;;;;;4.35;1.92;;;;;;;22.73;33.20;99391.91;10378366;28;21048;-60
2023/07/03 18:30:06;;;;;;;3.60;1.65;;;;;;;22.52;33.47;99385.44;10372283;28;20162;-60
2023/07/03 18:35:08;;;;;;;5.22;1.90;;;;;;;22.36;33.77;99382.94;10376426;28;20061;-60
2023/07/03 18:40:10;;;;;;;4.63;1.95;;;;;;;22.25;33.85;99386.00;10372946;28;20132;-60
2023/07/03 18:45:12;;;;;;;4.57;1.98;;;;;;;22.21;33.98;99386.56;10368646;28;20049;-60
2023/07/03 18:50:14;;;;;;;5.93;2.13;;;;;;;22.23;34.44;99390.69;10375788;28;20168;-60
2023/07/03 18:55:17;;;;;;;5.63;2.10;;;;;;;22.16;34.46;99388.91;10385799;28;20513;-60
2023/07/03 19:00:20;;;;;;;4.90;1.98;;;;;;;21.98;34.88;99389.19;10377220;28;20043;-60
2023/07/03 19:05:22;;;;;;;3.88;1.70;;;;;;;21.85;35.12;99392.44;10372204;28;20041;-60
2023/07/03 19:10:25;;;;;;;3.80;2.00;;;;;;;21.68;35.61;99393.53;10380368;28;20041;-60
2023/07/03 19:15:27;;;;;;;4.63;1.92;;;;;;;21.48;36.22;99388.81;10367115;28;20069;-60
2023/07/03 19:20:29;;;;;;;4.00;1.90;;;;;;;21.29;36.68;99386.56;10378521;28;20045;-60
2023/07/03 19:25:31;;;;;;;3.75;1.83;;;;;;;21.12;37.04;99387.63;10380427;28;20436;-60
2023/07/03 19:30:33;;;;;;;5.18;1.92;;;;;;;20.86;37.58;99388.72;10382741;28;20095;-60
2023/07/03 19:35:36;;;;;;;5.90;1.70;;;;;;;20.71;38.13;99398.38;10381057;28;20712;-60
2023/07/03 19:40:38;;;;;;;4.05;1.80;;;;;;;20.53;38.23;99402.19;10383950;28;20045;-60
2023/07/03 19:45:41;;;;;;;4.82;2.03;;;;;;;20.42;39.04;99408.66;10363656;28;20045;-59
2023/07/03 19:50:46;;;;;;;4.47;2.13;;;;;;;20.28;39.10;99409.31;10381146;28;20048;-59
2023/07/03 19:55:48;;;;;;;6.07;1.90;;;;;;;20.16;39.11;99418.59;10382951;28;20041;-59
2023/07/03 20:00:53;;;;;;;4.45;2.10;;;;;;;20.04;39.62;99417.28;10379705;28;20048;-59
2023/07/03 20:05:56;;;;;;;4.38;2.08;;;;;;;19.86;39.82;99427.19;10383554;28;21079;-58
2023/07/03 20:11:00;;;;;;;5.10;2.20;;;;;;;19.79;40.22;99434.09;10382714;28;20098;-59
2023/07/03 20:16:03;;;;;;;4.40;1.80;;;;;;;19.71;40.30;99437.56;10387488;28;20065;-59
2023/07/03 20:21:07;;;;;;;5.60;2.13;;;;;;;19.57;40.74;99437.34;10388255;28;20047;-59
2023/07/03 20:26:09;;;;;;;5.80;2.17;;;;;;;19.48;41.00;99443.63;10389627;28;20053;-59
2023/07/03 20:31:13;;;;;;;5.50;1.80;;;;;;;19.41;41.39;99446.94;10390124;28;20053;-59
2023/07/03 20:36:15;;;;;;;3.80;1.90;;;;;;;19.24;41.55;99441.69;10388749;28;20158;-59
2023/07/03 20:41:19;;;;;;;3.65;1.85;;;;;;;19.16;42.03;99450.44;10372219;28;20498;-59
2023/07/03 20:46:21;;;;;;;4.40;1.90;;;;;;;19.06;42.21;99462.97;10388199;28;20045;-59
2023/07/03 20:51:26;;;;;;;4.72;2.10;;;;;;;19.11;41.75;99459.84;10387749;28;20049;-60
2023/07/03 20:56:35;;;;;;;5.10;2.10;;;;;;;19.07;41.90;99455.84;10387047;28;20068;-59
2023/07/03 21:01:38;;;;;;;5.75;2.38;;;;;;;19.00;42.00;99452.97;10387948;28;20450;-59
2023/07/03 21:06:42;;;;;;;6.05;2.20;;;;;;;19.03;41.87;99463.28;10365092;28;20038;-59
2023/07/03 21:11:46;;;;;;;5.80;2.50;;;;;;;19.01;42.05;99462.56;10383458;28;20382;-59
2023/07/03 21:16:48;;;;;;;8.40;2.45;;;;;;;18.95;42.48;99457.88;10381807;28;20059;-58
2023/07/03 21:21:50;;;;;;;5.22;2.50;;;;;;;18.89;42.34;99461.16;10378224;28;20056;-59
2023/07/03 21:26:52;;;;;;;5.93;2.42;;;;;;;18.83;42.75;99467.09;10386718;28;20865;-59
2023/07/03 21:31:54;;;;;;;7.35;2.33;;;;;;;18.79;42.64;99465.72;10384208;28;20520;-59
2023/07/03 21:36:56;;;;;;;5.38;2.50;;;;;;;18.66;43.06;99470.63;10386062;28;20050;-59
2023/07/03 21:41:59;;;;;;;5.70;2.17;;;;;;;18.55;43.43;99471.69;10385792;28;20145;-59
2023/07/03 21:47:00;;;;;;;5.20;2.15;;;;;;;18.50;43.51;99475.78;10385930;28;20132;-59
2023/07/03 21:52:03;;;;;;;6.43;2.20;;;;;;;18.41;43.91;99476.69;10370692;28;20099;-59
2023/07/03 21:57:05;;;;;;;4.97;2.40;;;;;;;18.35;43.66;99482.59;10385547;28;20043;-58
2023/07/03 22:02:07;;;;;;;4.88;2.15;;;;;;;18.26;44.19;99484.31;10383077;28;20056;-59
2023/07/03 22:07:09;;;;;;;6.35;2.50;;;;;;;18.21;44.47;99491.91;10384864;28;20132;-59
2023/07/03 22:12:11;;;;;;;6.32;2.40;;;;;;;18.22;44.56;99495.38;10384996;28;20429;-59
2023/07/03 22:17:13;;;;;;;5.65;2.50;;;;;;;18.17;44.62;99493.16;10384603;28;20501;-59
2023/07/03 22:22:16;;;;;;;5.53;2.15;;;;;;;18.08;44.49;99498.50;10383505;28;20502;-59
2023/07/03 22:27:18;;;;;;;5.15;2.33;;;;;;;17.98;44.97;99509.16;10383729;28;20409;-58
2023/07/03 22:32:20;;;;;;;5.57;2.38;;;;;;;17.93;44.97;99500.00;10384640;28;20044;-59
2023/07/03 22:37:22;;;;;;;6.78;2.35;;;;;;;17.93;44.75;99500.00;10383927;28;20076;-59
2023/07/03 22:42:24;;;;;;;5.68;2.30;;;;;;;17.96;44.61;99497.88;10383885;28;20041;-59
2023/07/03 22:47:26;;;;;;;4.65;1.95;;;;;;;17.94;44.28;99499.00;10385654;28;20055;-59
2023/07/03 22:52:30;;;;;;;5.70;2.13;;;;;;;17.94;44.37;99510.44;10382118;28;20042;-59
2023/07/03 22:57:32;;;;;;;6.60;1.95;;;;;;;17.97;44.19;99511.94;10373974;28;20033;-59
2023/07/03 23:02:34;;;;;;;5.63;2.20;;;;;;;17.93;44.29;99516.72;10379553;28;20055;-59
2023/07/03 23:07:55;;;;;;;4.88;2.00;;;;;;;17.84;44.51;99515.78;10383284;28;20494;-58
2023/07/03 23:12:57;;;;;;;4.65;2.03;;;;;;;17.81;44.30;99516.06;10381803;28;20053;-59
2023/07/03 23:17:59;;;;;;;7.10;2.13;;;;;;;17.81;43.93;99515.25;10382134;28;20053;-59
2023/07/03 23:23:01;;;;;;;5.85;2.00;;;;;;;17.67;44.49;99524.50;10383360;28;20053;-59
2023/07/03 23:28:04;;;;;;;5.25;2.40;;;;;;;17.63;44.39;99524.91;10364911;28;20049;-59
2023/07/03 23:33:06;;;;;;;5.70;2.10;;;;;;;17.66;44.14;99525.47;10380815;28;20440;-59